Historyczne dane pomiarowe

Dodano dane terminowe – wersja testowa.

Dane z okresu 1951-2019

Wersja bazy: 1.34 [2019-03-16, lista zmian], aktualizacja planowana na 2019-04-15

Dane meteo z obszaru Polski uzyskane na podstawie danych udostępnionych przez Instytut Meteorologii i Gospodarki Wodnej – Państwowy Instytut Badawczy.

 

Wybierz Datę:    

       

TemperaturaWilgotnośćWiatrCiśnienieOpadyŚniegCzas trwania zjawisk
 Stacja t tx tn tng RH VA  wxwx mslp ppp RRR   cm mm wxwxwxwxwxwxwx
1977-10-10 11.1 19.6 4.9- 72.3- 1.0 0.7---- 0.9------------
1977-10-09 11.8 22.9 4.2- 76.8- 2.7 0.0---- 0.0------------
1977-10-08 13.9 21.6 8.8- 71.8- 0.0 1.7---- 0.0------------
1977-10-07 13.2 20.1 8.3- 79.5- 0.3 1.0---- 0.0------------
1977-10-06 9.7 17.1 4.3- 81.0- 1.0 0.0---- 0.0------------
1977-10-05 7.8 15.3 3.6- 83.8- 5.7 0.0---- 0.0------------
1977-10-04 5.3 10.9 0.9- 82.5- 4.3 1.0---- 0.0------------
1977-10-03 2.0 7.7 -1.6- 92.0- 5.0 0.0---- 2.9------------
1977-10-02 6.2 10.6 3.2- 70.8- 1.7 1.0---- 0.0------------
1977-10-01 6.1 13.7 0.4- 82.5- 8.0 0.0---- 3.1------------
1977-09-30 7.7 14.5 5.3- 69.5- 4.7 1.0---- 0.0------------
1977-09-29 3.2 12.3 -4.1- 73.0- 3.7 1.0---- 0.0------------
1977-09-28 0.2 10.1 -5.0- 80.5- 0.0 0.0---- 0.0------------
1977-09-27 1.0 7.6 -1.9- 77.8- 1.3 0.7---- 0.0------------
1977-09-26 2.4 8.1 -1.6- 82.3- 4.7 0.0---- 0.0------------
1977-09-25 3.2 9.4 -1.1- 85.3- 4.3 0.0---- 0.0------------
1977-09-24 6.9 9.5 5.1- 80.8- 5.7 0.7---- 0.0------------
1977-09-23 7.9 10.6 6.0- 91.8- 7.3 0.7---- 1.8------------
1977-09-22 6.8 8.1 5.3- 82.8- 8.0 0.0---- 13.7------------
1977-09-21 9.1 12.1 7.8- 94.3- 7.7 0.0---- 6.8------------
1977-09-20 7.5 9.7 5.8- 96.5- 8.0 0.0---- 10.7------------
1977-09-19 7.5 10.3 4.8- 94.0- 8.0 0.0---- 0.3------------
1977-09-18 3.5 9.6 -0.1- 93.0- 5.3 0.0---- 10.2------------
1977-09-17 5.2 9.3 1.3- 86.5- 5.0 0.0---- 0.0------------
1977-09-16 6.4 12.0 4.0- 75.8- 4.7 1.3---- 1.3------------
1977-09-15 11.3 12.4 6.1- 69.0- 6.7 0.3---- 5.0------------
1977-09-14 5.0 13.6 -0.1- 79.3- 1.3 0.0---- 0.0------------
1977-09-13 8.7 14.1 3.9- 85.0- 5.3 1.3---- 0.2------------
1977-09-12 14.5 21.1 9.0- 85.8- 4.3 0.0---- 0.4------------
1977-09-11 7.8 9.6 5.8- 90.3- 8.0 0.0---- 8.4------------
1977-09-10 8.4 12.1 6.0- 78.5- 6.3 1.3---- 0.0------------
1977-09-09 12.6 16.1 8.3- 90.5- 7.7 1.0---- 16.9------------
1977-09-08 15.4 20.8 11.4- 90.0- 7.7 0.0---- 12.7------------
1977-09-07 15.9 24.1 11.2- 84.0- 5.3 0.0---- 0.0------------
1977-09-06 15.7 21.4 9.4- 87.3- 3.7 0.0---- 0.0------------
1977-09-05 14.0 21.7 9.3- 88.0- 3.7 0.3---- 0.0------------
1977-09-04 13.8 24.3 7.5- 82.0- 1.0 0.0---- 0.0------------
1977-09-03 14.0 24.1 8.3- 82.3- 3.3 0.0---- 0.0------------
1977-09-02 14.9 23.6 10.0- 85.5- 1.7 0.0---- 0.0------------
1977-09-01 15.0 22.3 9.6- 87.3- 1.3 1.0---- 0.0------------
1977-08-31 14.4 24.3 7.9- 82.3- 0.0 0.0---- 0.0------------
1977-08-30 12.8 22.8 6.2- 86.8- 4.3 0.0---- 0.0------------
1977-08-29 14.2 20.6 11.2- 82.0- 3.3 0.0---- 0.0------------
1977-08-28 15.8 21.7 8.8- 85.8- 6.3 0.3---- 8.9------------
1977-08-27 12.9 21.8 6.0- 81.8- 2.0 0.0---- 0.0------------
1977-08-26 9.8 19.1 2.9- 83.5- 1.7 0.0---- 0.0------------
1977-08-25 11.6 16.9 9.4- 78.5- 2.0 0.3---- 0.0------------
1977-08-24 10.9 15.1 9.3- 84.3- 7.7 0.7---- 0.0------------
1977-08-23 12.3 15.4 10.1- 87.5- 7.3 0.0---- 3.0------------
1977-08-22 15.7 20.3 14.1- 81.8- 4.7 1.0---- 0.0------------
1977-08-21 13.4 18.1 10.7- 94.0- 7.3 0.0---- 6.2------------
1977-08-20 12.9 16.9 10.1- 93.8- 7.0 0.0---- 8.3------------
1977-08-19 15.1 19.0 11.5- 89.5- 7.7 0.0---- 2.8------------
1977-08-18 12.6 20.1 6.4- 89.3- 5.3 0.0---- 0.0------------
1977-08-17 11.7 16.8 10.4- 85.5- 4.7 0.0---- 0.0------------
1977-08-16 10.9 14.2 10.2- 92.3- 8.0 0.3---- 1.0------------
1977-08-15 13.6 16.1 12.2- 89.5- 8.0 1.3---- 4.0------------
1977-08-14 15.1 21.1 12.0- 91.3- 7.3 0.0---- 2.2------------
1977-08-13 16.5 22.9 13.5- 87.0- 3.3 0.0---- 23.5------------
1977-08-12 17.0 23.1 13.0- 82.0- 6.7 0.0---- 2.0------------
334.0 ms

 

Źródłem pochodzenia danych jest Instytut Meteorologii i Gospodarki Wodnej – Państwowy Instytut Badawczy. Dane Instytutu Meteorologii i Gospodarki Wodnej – Państwowego Instytutu Badawczego zostały przetworzone.

Dane źródłowe można odnaleźć na stronie https://dane.imgw.pl